sensor_id;sensor_type;location;lat;lon;timestamp;P1;durP1;ratioP1;P2;durP2;ratioP2
23336;SDS011;11840;45.414;12.372;2023-05-15T06:50:04;0.38;;;0.20;;
23336;SDS011;11840;45.414;12.372;2023-05-15T06:52:30;0.52;;;0.10;;
23336;SDS011;11840;45.414;12.372;2023-05-15T06:54:56;0.30;;;0.10;;
23336;SDS011;11840;45.414;12.372;2023-05-15T06:57:22;0.68;;;0.30;;
23336;SDS011;11840;45.414;12.372;2023-05-15T06:59:48;0.57;;;0.40;;
23336;SDS011;11840;45.414;12.372;2023-05-15T07:02:14;0.50;;;0.30;;
23336;SDS011;11840;45.414;12.372;2023-05-15T07:04:39;0.40;;;0.32;;
23336;SDS011;11840;45.414;12.372;2023-05-15T07:07:05;0.47;;;0.20;;
23336;SDS011;11840;45.414;12.372;2023-05-15T07:09:31;0.00;;;0.00;;
23336;SDS011;11840;45.414;12.372;2023-05-15T07:11:57;0.15;;;0.13;;
23336;SDS011;11840;45.414;12.372;2023-05-15T07:14:22;0.25;;;0.10;;
23336;SDS011;11840;45.414;12.372;2023-05-15T07:16:48;0.80;;;0.30;;
23336;SDS011;11840;45.414;12.372;2023-05-15T07:19:17;0.28;;;0.10;;
23336;SDS011;11840;45.414;12.372;2023-05-15T07:21:45;0.45;;;0.30;;
23336;SDS011;11840;45.414;12.372;2023-05-15T07:24:11;0.00;;;0.00;;
23336;SDS011;11840;45.414;12.372;2023-05-15T07:26:37;0.45;;;0.30;;
23336;SDS011;11840;45.414;12.372;2023-05-15T07:29:04;0.10;;;0.10;;
23336;SDS011;11840;45.414;12.372;2023-05-15T07:31:30;0.25;;;0.20;;
23336;SDS011;11840;45.414;12.372;2023-05-15T07:33:57;0.93;;;0.30;;
23336;SDS011;11840;45.414;12.372;2023-05-15T07:36:23;0.15;;;0.10;;
23336;SDS011;11840;45.414;12.372;2023-05-15T07:38:48;0.00;;;0.00;;
23336;SDS011;11840;45.414;12.372;2023-05-15T07:41:14;0.20;;;0.10;;
23336;SDS011;11840;45.414;12.372;2023-05-15T07:43:40;0.32;;;0.20;;
23336;SDS011;11840;45.414;12.372;2023-05-15T07:46:06;0.00;;;0.00;;
23336;SDS011;11840;45.414;12.372;2023-05-15T07:48:31;0.40;;;0.10;;
23336;SDS011;11840;45.414;12.372;2023-05-15T07:50:57;0.57;;;0.10;;
23336;SDS011;11840;45.414;12.372;2023-05-15T07:53:23;0.10;;;0.10;;
23336;SDS011;11840;45.414;12.372;2023-05-15T07:55:50;0.10;;;0.10;;
23336;SDS011;11840;45.414;12.372;2023-05-15T07:58:16;0.10;;;0.10;;
23336;SDS011;11840;45.414;12.372;2023-05-15T08:00:42;0.50;;;0.20;;
23336;SDS011;11840;45.414;12.372;2023-05-15T08:03:09;0.13;;;0.08;;
23336;SDS011;11840;45.414;12.372;2023-05-15T08:05:35;0.28;;;0.10;;
23336;SDS011;11840;45.414;12.372;2023-05-15T08:08:00;0.47;;;0.15;;
23336;SDS011;11840;45.414;12.372;2023-05-15T08:10:27;0.55;;;0.30;;
23336;SDS011;11840;45.414;12.372;2023-05-15T08:12:53;0.20;;;0.10;;
23336;SDS011;11840;45.414;12.372;2023-05-15T08:15:19;0.63;;;0.20;;
23336;SDS011;11840;45.414;12.372;2023-05-15T08:17:45;0.10;;;0.10;;
23336;SDS011;11840;45.414;12.372;2023-05-15T08:20:11;0.08;;;0.00;;
23336;SDS011;11840;45.414;12.372;2023-05-15T08:22:36;0.40;;;0.20;;
23336;SDS011;11840;45.414;12.372;2023-05-15T08:25:03;0.75;;;0.20;;
23336;SDS011;11840;45.414;12.372;2023-05-15T08:27:29;0.20;;;0.10;;
23336;SDS011;11840;45.414;12.372;2023-05-15T08:29:56;0.30;;;0.28;;
23336;SDS011;11840;45.414;12.372;2023-05-15T08:32:22;0.88;;;0.43;;
23336;SDS011;11840;45.414;12.372;2023-05-15T08:34:47;0.80;;;0.45;;
23336;SDS011;11840;45.414;12.372;2023-05-15T08:37:13;0.95;;;0.35;;
23336;SDS011;11840;45.414;12.372;2023-05-15T08:39:40;0.50;;;0.28;;
23336;SDS011;11840;45.414;12.372;2023-05-15T08:42:07;0.60;;;0.30;;
23336;SDS011;11840;45.414;12.372;2023-05-15T08:44:35;0.65;;;0.40;;
23336;SDS011;11840;45.414;12.372;2023-05-15T08:47:01;0.45;;;0.45;;
23336;SDS011;11840;45.414;12.372;2023-05-15T08:52:12;0.50;;;0.30;;
23336;SDS011;11840;45.414;12.372;2023-05-15T08:54:38;1.10;;;0.43;;
23336;SDS011;11840;45.414;12.372;2023-05-15T08:57:05;0.65;;;0.40;;
23336;SDS011;11840;45.414;12.372;2023-05-15T08:59:31;1.02;;;0.50;;
23336;SDS011;11840;45.414;12.372;2023-05-15T09:01:58;1.25;;;0.60;;
23336;SDS011;11840;45.414;12.372;2023-05-15T09:04:24;0.65;;;0.32;;
23336;SDS011;11840;45.414;12.372;2023-05-15T09:06:50;0.57;;;0.43;;
23336;SDS011;11840;45.414;12.372;2023-05-15T09:09:17;0.80;;;0.45;;
23336;SDS011;11840;45.414;12.372;2023-05-15T09:11:44;0.32;;;0.32;;
23336;SDS011;11840;45.414;12.372;2023-05-15T09:14:10;0.75;;;0.30;;
23336;SDS011;11840;45.414;12.372;2023-05-15T09:16:36;0.32;;;0.30;;
23336;SDS011;11840;45.414;12.372;2023-05-15T09:19:02;0.68;;;0.50;;
23336;SDS011;11840;45.414;12.372;2023-05-15T09:21:29;1.20;;;0.60;;
23336;SDS011;11840;45.414;12.372;2023-05-15T09:26:40;1.75;;;0.60;;
23336;SDS011;11840;45.414;12.372;2023-05-15T09:29:06;1.15;;;0.50;;
23336;SDS011;11840;45.414;12.372;2023-05-15T09:31:33;1.08;;;0.70;;
23336;SDS011;11840;45.414;12.372;2023-05-15T09:33:59;0.93;;;0.40;;
23336;SDS011;11840;45.414;12.372;2023-05-15T09:36:30;0.98;;;0.60;;
23336;SDS011;11840;45.414;12.372;2023-05-15T09:38:57;1.67;;;0.45;;
23336;SDS011;11840;45.414;12.372;2023-05-15T09:41:23;0.65;;;0.50;;
23336;SDS011;11840;45.414;12.372;2023-05-15T09:43:49;1.25;;;0.40;;
23336;SDS011;11840;45.414;12.372;2023-05-15T09:46:16;0.73;;;0.47;;
23336;SDS011;11840;45.414;12.372;2023-05-15T09:48:41;1.00;;;0.50;;
23336;SDS011;11840;45.414;12.372;2023-05-15T09:51:17;0.68;;;0.40;;
23336;SDS011;11840;45.414;12.372;2023-05-15T09:53:47;0.88;;;0.57;;
23336;SDS011;11840;45.414;12.372;2023-05-15T09:56:12;1.27;;;0.57;;
23336;SDS011;11840;45.414;12.372;2023-05-15T09:58:40;0.40;;;0.40;;
23336;SDS011;11840;45.414;12.372;2023-05-15T10:01:18;2.85;;;0.60;;
23336;SDS011;11840;45.414;12.372;2023-05-15T10:03:44;1.70;;;0.70;;
23336;SDS011;11840;45.414;12.372;2023-05-15T10:06:10;1.25;;;0.75;;
23336;SDS011;11840;45.414;12.372;2023-05-15T10:08:49;0.80;;;0.47;;
23336;SDS011;11840;45.414;12.372;2023-05-15T10:11:15;0.65;;;0.35;;
23336;SDS011;11840;45.414;12.372;2023-05-15T10:13:40;0.95;;;0.50;;
23336;SDS011;11840;45.414;12.372;2023-05-15T10:16:06;1.10;;;0.57;;
23336;SDS011;11840;45.414;12.372;2023-05-15T10:18:32;0.55;;;0.40;;
23336;SDS011;11840;45.414;12.372;2023-05-15T10:20:58;0.60;;;0.35;;
23336;SDS011;11840;45.414;12.372;2023-05-15T10:23:29;0.43;;;0.40;;
23336;SDS011;11840;45.414;12.372;2023-05-15T10:25:59;0.85;;;0.47;;
23336;SDS011;11840;45.414;12.372;2023-05-15T10:28:27;1.10;;;0.47;;
23336;SDS011;11840;45.414;12.372;2023-05-15T10:30:54;0.82;;;0.50;;
23336;SDS011;11840;45.414;12.372;2023-05-15T10:33:20;0.90;;;0.60;;
23336;SDS011;11840;45.414;12.372;2023-05-15T10:35:46;0.75;;;0.47;;
23336;SDS011;11840;45.414;12.372;2023-05-15T10:38:13;1.63;;;0.65;;
23336;SDS011;11840;45.414;12.372;2023-05-15T10:40:39;1.25;;;0.57;;
23336;SDS011;11840;45.414;12.372;2023-05-15T10:43:05;0.60;;;0.38;;
23336;SDS011;11840;45.414;12.372;2023-05-15T10:45:30;1.42;;;0.40;;
23336;SDS011;11840;45.414;12.372;2023-05-15T10:47:56;0.95;;;0.60;;
23336;SDS011;11840;45.414;12.372;2023-05-15T10:50:22;0.90;;;0.57;;
23336;SDS011;11840;45.414;12.372;2023-05-15T10:52:51;1.48;;;0.38;;
23336;SDS011;11840;45.414;12.372;2023-05-15T10:55:17;1.00;;;0.40;;
23336;SDS011;11840;45.414;12.372;2023-05-15T10:57:46;0.63;;;0.38;;
23336;SDS011;11840;45.414;12.372;2023-05-15T11:02:46;0.43;;;0.40;;
23336;SDS011;11840;45.414;12.372;2023-05-15T11:05:12;0.68;;;0.32;;
23336;SDS011;11840;45.414;12.372;2023-05-15T11:07:38;0.60;;;0.40;;
23336;SDS011;11840;45.414;12.372;2023-05-15T11:12:55;0.30;;;0.30;;
23336;SDS011;11840;45.414;12.372;2023-05-15T11:15:21;0.77;;;0.47;;
23336;SDS011;11840;45.414;12.372;2023-05-15T11:18:00;0.32;;;0.32;;
23336;SDS011;11840;45.414;12.372;2023-05-15T11:20:39;0.40;;;0.38;;
23336;SDS011;11840;45.414;12.372;2023-05-15T11:23:05;0.47;;;0.28;;
23336;SDS011;11840;45.414;12.372;2023-05-15T11:25:32;0.93;;;0.40;;
23336;SDS011;11840;45.414;12.372;2023-05-15T11:27:59;0.50;;;0.30;;
23336;SDS011;11840;45.414;12.372;2023-05-15T11:30:36;0.40;;;0.30;;
23336;SDS011;11840;45.414;12.372;2023-05-15T11:35:29;0.22;;;0.22;;
23336;SDS011;11840;45.414;12.372;2023-05-15T11:37:56;0.32;;;0.13;;
23336;SDS011;11840;45.414;12.372;2023-05-15T11:45:43;0.70;;;0.30;;
23336;SDS011;11840;45.414;12.372;2023-05-15T11:48:14;0.20;;;0.20;;
23336;SDS011;11840;45.414;12.372;2023-05-15T11:50:40;0.20;;;0.20;;
23336;SDS011;11840;45.414;12.372;2023-05-15T11:53:07;0.20;;;0.20;;
23336;SDS011;11840;45.414;12.372;2023-05-15T11:55:35;0.40;;;0.30;;
23336;SDS011;11840;45.414;12.372;2023-05-15T11:58:02;0.55;;;0.38;;
23336;SDS011;11840;45.414;12.372;2023-05-15T12:00:28;0.20;;;0.20;;
23336;SDS011;11840;45.414;12.372;2023-05-15T12:02:55;0.25;;;0.20;;
23336;SDS011;11840;45.414;12.372;2023-05-15T12:05:21;0.10;;;0.10;;
23336;SDS011;11840;45.414;12.372;2023-05-15T12:07:47;0.40;;;0.17;;
23336;SDS011;11840;45.414;12.372;2023-05-15T12:10:12;0.50;;;0.20;;
23336;SDS011;11840;45.414;12.372;2023-05-15T12:12:39;0.22;;;0.22;;
23336;SDS011;11840;45.414;12.372;2023-05-15T12:15:07;0.17;;;0.17;;
23336;SDS011;11840;45.414;12.372;2023-05-15T12:17:35;0.20;;;0.20;;
23336;SDS011;11840;45.414;12.372;2023-05-15T12:20:01;0.30;;;0.30;;
23336;SDS011;11840;45.414;12.372;2023-05-15T12:22:32;0.30;;;0.30;;
23336;SDS011;11840;45.414;12.372;2023-05-15T12:25:00;0.20;;;0.17;;
23336;SDS011;11840;45.414;12.372;2023-05-15T12:27:26;0.30;;;0.10;;
23336;SDS011;11840;45.414;12.372;2023-05-15T12:29:52;0.32;;;0.20;;
23336;SDS011;11840;45.414;12.372;2023-05-15T12:32:18;0.40;;;0.15;;
23336;SDS011;11840;45.414;12.372;2023-05-15T12:34:44;0.35;;;0.17;;
23336;SDS011;11840;45.414;12.372;2023-05-15T12:37:13;0.32;;;0.20;;
23336;SDS011;11840;45.414;12.372;2023-05-15T12:39:55;0.60;;;0.20;;
23336;SDS011;11840;45.414;12.372;2023-05-15T12:42:21;0.13;;;0.10;;
23336;SDS011;11840;45.414;12.372;2023-05-15T12:44:51;0.30;;;0.20;;
23336;SDS011;11840;45.414;12.372;2023-05-15T12:47:26;0.10;;;0.10;;
23336;SDS011;11840;45.414;12.372;2023-05-15T12:49:55;0.13;;;0.10;;
23336;SDS011;11840;45.414;12.372;2023-05-15T12:52:21;0.20;;;0.10;;
23336;SDS011;11840;45.414;12.372;2023-05-15T12:54:47;0.28;;;0.20;;
23336;SDS011;11840;45.414;12.372;2023-05-15T12:57:12;0.00;;;0.00;;
23336;SDS011;11840;45.414;12.372;2023-05-15T12:59:39;0.10;;;0.10;;
23336;SDS011;11840;45.414;12.372;2023-05-15T13:02:11;0.30;;;0.20;;
23336;SDS011;11840;45.414;12.372;2023-05-15T13:04:37;0.40;;;0.20;;
23336;SDS011;11840;45.414;12.372;2023-05-15T13:07:04;0.20;;;0.10;;
23336;SDS011;11840;45.414;12.372;2023-05-15T13:09:29;0.45;;;0.20;;
23336;SDS011;11840;45.414;12.372;2023-05-15T13:11:57;0.20;;;0.10;;
23336;SDS011;11840;45.414;12.372;2023-05-15T13:14:26;0.38;;;0.20;;
23336;SDS011;11840;45.414;12.372;2023-05-15T13:16:53;0.13;;;0.10;;
23336;SDS011;11840;45.414;12.372;2023-05-15T13:19:23;0.05;;;0.05;;
23336;SDS011;11840;45.414;12.372;2023-05-15T13:21:49;0.10;;;0.10;;
23336;SDS011;11840;45.414;12.372;2023-05-15T13:24:15;0.40;;;0.20;;
23336;SDS011;11840;45.414;12.372;2023-05-15T13:26:40;0.10;;;0.10;;
23336;SDS011;11840;45.414;12.372;2023-05-15T13:29:06;0.15;;;0.13;;
23336;SDS011;11840;45.414;12.372;2023-05-15T13:31:32;0.10;;;0.10;;
23336;SDS011;11840;45.414;12.372;2023-05-15T13:33:58;0.13;;;0.10;;
23336;SDS011;11840;45.414;12.372;2023-05-15T13:36:23;0.10;;;0.10;;
23336;SDS011;11840;45.414;12.372;2023-05-15T13:38:49;0.40;;;0.20;;
23336;SDS011;11840;45.414;12.372;2023-05-15T13:41:15;0.10;;;0.10;;
23336;SDS011;11840;45.414;12.372;2023-05-15T13:43:41;0.13;;;0.10;;
23336;SDS011;11840;45.414;12.372;2023-05-15T13:46:06;0.17;;;0.00;;
23336;SDS011;11840;45.414;12.372;2023-05-15T13:48:33;0.10;;;0.10;;
23336;SDS011;11840;45.414;12.372;2023-05-15T13:50:58;0.10;;;0.10;;
23336;SDS011;11840;45.414;12.372;2023-05-15T13:53:24;0.10;;;0.10;;
23336;SDS011;11840;45.414;12.372;2023-05-15T13:55:50;0.13;;;0.10;;
23336;SDS011;11840;45.414;12.372;2023-05-15T13:58:15;0.43;;;0.28;;
23336;SDS011;11840;45.414;12.372;2023-05-15T14:00:42;0.30;;;0.20;;
23336;SDS011;11840;45.414;12.372;2023-05-15T14:03:08;0.17;;;0.10;;
23336;SDS011;11840;45.414;12.372;2023-05-15T14:05:34;0.52;;;0.20;;
23336;SDS011;11840;45.414;12.372;2023-05-15T14:08:00;0.10;;;0.00;;
23336;SDS011;11840;45.414;12.372;2023-05-15T14:10:25;0.00;;;0.00;;
23336;SDS011;11840;45.414;12.372;2023-05-15T14:12:51;0.10;;;0.10;;
23336;SDS011;11840;45.414;12.372;2023-05-15T14:15:17;0.47;;;0.13;;
23336;SDS011;11840;45.414;12.372;2023-05-15T14:17:43;0.08;;;0.00;;
23336;SDS011;11840;45.414;12.372;2023-05-15T14:20:11;0.17;;;0.10;;
23336;SDS011;11840;45.414;12.372;2023-05-15T14:22:37;0.00;;;0.00;;
23336;SDS011;11840;45.414;12.372;2023-05-15T14:25:03;0.10;;;0.00;;
23336;SDS011;11840;45.414;12.372;2023-05-15T14:27:29;0.10;;;0.03;;
23336;SDS011;11840;45.414;12.372;2023-05-15T14:29:54;0.00;;;0.00;;
23336;SDS011;11840;45.414;12.372;2023-05-15T14:32:23;0.55;;;0.10;;
23336;SDS011;11840;45.414;12.372;2023-05-15T14:34:49;0.05;;;0.00;;
23336;SDS011;11840;45.414;12.372;2023-05-15T14:37:15;0.00;;;0.00;;
23336;SDS011;11840;45.414;12.372;2023-05-15T14:39:41;0.10;;;0.10;;
23336;SDS011;11840;45.414;12.372;2023-05-15T14:42:06;0.17;;;0.10;;
23336;SDS011;11840;45.414;12.372;2023-05-15T14:44:33;0.13;;;0.10;;
23336;SDS011;11840;45.414;12.372;2023-05-15T14:47:08;0.00;;;0.00;;
23336;SDS011;11840;45.414;12.372;2023-05-15T14:49:34;0.10;;;0.00;;
23336;SDS011;11840;45.414;12.372;2023-05-15T14:52:01;0.10;;;0.10;;
23336;SDS011;11840;45.414;12.372;2023-05-15T14:54:27;0.08;;;0.05;;
23336;SDS011;11840;45.414;12.372;2023-05-15T14:56:53;1.30;;;0.20;;
23336;SDS011;11840;45.414;12.372;2023-05-15T14:59:19;0.17;;;0.10;;
23336;SDS011;11840;45.414;12.372;2023-05-15T15:01:45;0.30;;;0.10;;
23336;SDS011;11840;45.414;12.372;2023-05-15T15:04:11;0.20;;;0.10;;
23336;SDS011;11840;45.414;12.372;2023-05-15T15:06:37;0.10;;;0.08;;
23336;SDS011;11840;45.414;12.372;2023-05-15T15:09:03;0.08;;;0.08;;
23336;SDS011;11840;45.414;12.372;2023-05-15T15:11:29;0.22;;;0.10;;
23336;SDS011;11840;45.414;12.372;2023-05-15T15:13:55;0.05;;;0.05;;
23336;SDS011;11840;45.414;12.372;2023-05-15T15:16:21;0.32;;;0.30;;
23336;SDS011;11840;45.414;12.372;2023-05-15T15:18:47;0.25;;;0.15;;
23336;SDS011;11840;45.414;12.372;2023-05-15T15:21:13;0.10;;;0.10;;
23336;SDS011;11840;45.414;12.372;2023-05-15T15:23:39;0.20;;;0.13;;
23336;SDS011;11840;45.414;12.372;2023-05-15T15:26:05;0.20;;;0.03;;
23336;SDS011;11840;45.414;12.372;2023-05-15T15:28:31;0.10;;;0.10;;
23336;SDS011;11840;45.414;12.372;2023-05-15T15:30:58;0.30;;;0.20;;
23336;SDS011;11840;45.414;12.372;2023-05-15T15:33:24;0.10;;;0.10;;
23336;SDS011;11840;45.414;12.372;2023-05-15T15:35:50;0.40;;;0.28;;
23336;SDS011;11840;45.414;12.372;2023-05-15T15:38:16;0.10;;;0.10;;
23336;SDS011;11840;45.414;12.372;2023-05-15T15:40:42;0.13;;;0.10;;
23336;SDS011;11840;45.414;12.372;2023-05-15T15:43:08;0.45;;;0.20;;
23336;SDS011;11840;45.414;12.372;2023-05-15T15:45:34;0.20;;;0.20;;
23336;SDS011;11840;45.414;12.372;2023-05-15T15:48:00;0.22;;;0.20;;
23336;SDS011;11840;45.414;12.372;2023-05-15T15:50:26;0.20;;;0.20;;
23336;SDS011;11840;45.414;12.372;2023-05-15T15:52:52;0.10;;;0.10;;
23336;SDS011;11840;45.414;12.372;2023-05-15T15:55:19;0.50;;;0.20;;
23336;SDS011;11840;45.414;12.372;2023-05-15T15:57:44;0.00;;;0.00;;
23336;SDS011;11840;45.414;12.372;2023-05-15T16:00:11;0.10;;;0.10;;
23336;SDS011;11840;45.414;12.372;2023-05-15T16:02:38;0.15;;;0.13;;
23336;SDS011;11840;45.414;12.372;2023-05-15T16:05:04;0.20;;;0.15;;
23336;SDS011;11840;45.414;12.372;2023-05-15T16:07:30;0.20;;;0.10;;
23336;SDS011;11840;45.414;12.372;2023-05-15T16:09:57;0.00;;;0.00;;
23336;SDS011;11840;45.414;12.372;2023-05-15T16:12:24;0.30;;;0.20;;
23336;SDS011;11840;45.414;12.372;2023-05-15T16:14:50;0.10;;;0.10;;
23336;SDS011;11840;45.414;12.372;2023-05-15T16:17:17;0.10;;;0.00;;
23336;SDS011;11840;45.414;12.372;2023-05-15T16:19:43;0.30;;;0.10;;
23336;SDS011;11840;45.414;12.372;2023-05-15T16:22:09;0.15;;;0.10;;
23336;SDS011;11840;45.414;12.372;2023-05-15T16:24:35;0.10;;;0.10;;
23336;SDS011;11840;45.414;12.372;2023-05-15T16:27:01;0.10;;;0.10;;
23336;SDS011;11840;45.414;12.372;2023-05-15T16:29:27;0.10;;;0.10;;
23336;SDS011;11840;45.414;12.372;2023-05-15T16:31:53;0.10;;;0.10;;
23336;SDS011;11840;45.414;12.372;2023-05-15T16:34:20;0.10;;;0.10;;
23336;SDS011;11840;45.414;12.372;2023-05-15T16:36:46;0.10;;;0.00;;
23336;SDS011;11840;45.414;12.372;2023-05-15T16:39:12;0.00;;;0.00;;
23336;SDS011;11840;45.414;12.372;2023-05-15T16:41:38;0.10;;;0.10;;
23336;SDS011;11840;45.414;12.372;2023-05-15T16:44:04;0.00;;;0.00;;
23336;SDS011;11840;45.414;12.372;2023-05-15T16:46:34;0.20;;;0.10;;
23336;SDS011;11840;45.414;12.372;2023-05-15T16:49:00;0.10;;;0.10;;
23336;SDS011;11840;45.414;12.372;2023-05-15T16:51:27;0.20;;;0.20;;
23336;SDS011;11840;45.414;12.372;2023-05-15T16:53:52;0.10;;;0.10;;
23336;SDS011;11840;45.414;12.372;2023-05-15T16:56:20;0.20;;;0.20;;
23336;SDS011;11840;45.414;12.372;2023-05-15T16:58:46;0.17;;;0.10;;
23336;SDS011;11840;45.414;12.372;2023-05-15T17:01:13;0.00;;;0.00;;
23336;SDS011;11840;45.414;12.372;2023-05-15T17:03:39;0.00;;;0.00;;
23336;SDS011;11840;45.414;12.372;2023-05-15T17:06:05;0.25;;;0.10;;
23336;SDS011;11840;45.414;12.372;2023-05-15T17:08:31;0.17;;;0.10;;
23336;SDS011;11840;45.414;12.372;2023-05-15T17:10:59;0.10;;;0.10;;
23336;SDS011;11840;45.414;12.372;2023-05-15T17:13:24;0.05;;;0.05;;
23336;SDS011;11840;45.414;12.372;2023-05-15T17:15:50;0.10;;;0.10;;
23336;SDS011;11840;45.414;12.372;2023-05-15T17:18:16;0.10;;;0.10;;
23336;SDS011;11840;45.414;12.372;2023-05-15T17:20:42;0.10;;;0.10;;
23336;SDS011;11840;45.414;12.372;2023-05-15T17:23:08;0.30;;;0.10;;
23336;SDS011;11840;45.414;12.372;2023-05-15T17:25:34;0.32;;;0.10;;
23336;SDS011;11840;45.414;12.372;2023-05-15T17:28:00;0.10;;;0.10;;
23336;SDS011;11840;45.414;12.372;2023-05-15T17:30:26;0.13;;;0.10;;
23336;SDS011;11840;45.414;12.372;2023-05-15T17:32:52;0.05;;;0.05;;
23336;SDS011;11840;45.414;12.372;2023-05-15T17:35:18;0.10;;;0.10;;
23336;SDS011;11840;45.414;12.372;2023-05-15T17:37:43;0.22;;;0.17;;
23336;SDS011;11840;45.414;12.372;2023-05-15T17:40:09;0.35;;;0.10;;
23336;SDS011;11840;45.414;12.372;2023-05-15T17:42:35;0.00;;;0.00;;
23336;SDS011;11840;45.414;12.372;2023-05-15T17:45:02;0.10;;;0.05;;
23336;SDS011;11840;45.414;12.372;2023-05-15T17:47:28;0.30;;;0.10;;
23336;SDS011;11840;45.414;12.372;2023-05-15T17:49:54;0.30;;;0.20;;
23336;SDS011;11840;45.414;12.372;2023-05-15T17:52:20;0.03;;;0.03;;
23336;SDS011;11840;45.414;12.372;2023-05-15T17:54:46;0.00;;;0.00;;
23336;SDS011;11840;45.414;12.372;2023-05-15T17:57:13;0.10;;;0.10;;
23336;SDS011;11840;45.414;12.372;2023-05-15T17:59:39;0.10;;;0.10;;
23336;SDS011;11840;45.414;12.372;2023-05-15T18:02:05;0.20;;;0.10;;
23336;SDS011;11840;45.414;12.372;2023-05-15T18:04:31;0.40;;;0.10;;
23336;SDS011;11840;45.414;12.372;2023-05-15T18:06:57;0.05;;;0.05;;
23336;SDS011;11840;45.414;12.372;2023-05-15T18:09:23;0.10;;;0.10;;
23336;SDS011;11840;45.414;12.372;2023-05-15T18:11:49;0.10;;;0.10;;
23336;SDS011;11840;45.414;12.372;2023-05-15T18:14:15;0.17;;;0.13;;
23336;SDS011;11840;45.414;12.372;2023-05-15T18:16:41;0.30;;;0.25;;
23336;SDS011;11840;45.414;12.372;2023-05-15T18:19:07;0.70;;;0.20;;
23336;SDS011;11840;45.414;12.372;2023-05-15T18:21:33;0.35;;;0.20;;
23336;SDS011;11840;45.414;12.372;2023-05-15T18:23:59;0.47;;;0.20;;
23336;SDS011;11840;45.414;12.372;2023-05-15T18:26:26;0.10;;;0.10;;
23336;SDS011;11840;45.414;12.372;2023-05-15T18:28:54;0.30;;;0.20;;
23336;SDS011;11840;45.414;12.372;2023-05-15T18:31:20;0.20;;;0.20;;
23336;SDS011;11840;45.414;12.372;2023-05-15T18:33:46;0.30;;;0.10;;
23336;SDS011;11840;45.414;12.372;2023-05-15T18:36:13;0.20;;;0.17;;
23336;SDS011;11840;45.414;12.372;2023-05-15T18:38:39;0.30;;;0.13;;
23336;SDS011;11840;45.414;12.372;2023-05-15T18:41:04;0.20;;;0.20;;
23336;SDS011;11840;45.414;12.372;2023-05-15T18:43:30;0.10;;;0.10;;
23336;SDS011;11840;45.414;12.372;2023-05-15T18:45:56;1.15;;;0.50;;
23336;SDS011;11840;45.414;12.372;2023-05-15T18:48:23;5.10;;;1.90;;
23336;SDS011;11840;45.414;12.372;2023-05-15T18:50:50;5.47;;;2.25;;
23336;SDS011;11840;45.414;12.372;2023-05-15T18:53:17;3.42;;;1.27;;
23336;SDS011;11840;45.414;12.372;2023-05-15T18:55:43;0.65;;;0.57;;
23336;SDS011;11840;45.414;12.372;2023-05-15T18:58:09;1.13;;;0.88;;
23336;SDS011;11840;45.414;12.372;2023-05-15T19:00:35;0.50;;;0.40;;
23336;SDS011;11840;45.414;12.372;2023-05-15T19:03:00;0.57;;;0.40;;
23336;SDS011;11840;45.414;12.372;2023-05-15T19:05:26;0.05;;;0.03;;
23336;SDS011;11840;45.414;12.372;2023-05-15T19:07:52;0.47;;;0.20;;
23336;SDS011;11840;45.414;12.372;2023-05-15T19:10:18;0.20;;;0.20;;
23336;SDS011;11840;45.414;12.372;2023-05-15T19:12:44;0.25;;;0.20;;
23336;SDS011;11840;45.414;12.372;2023-05-15T19:15:10;0.05;;;0.03;;
23336;SDS011;11840;45.414;12.372;2023-05-15T19:17:38;0.10;;;0.10;;
23336;SDS011;11840;45.414;12.372;2023-05-15T19:20:05;0.00;;;0.00;;
23336;SDS011;11840;45.414;12.372;2023-05-15T19:22:32;0.45;;;0.20;;
23336;SDS011;11840;45.414;12.372;2023-05-15T19:24:57;0.15;;;0.10;;
23336;SDS011;11840;45.414;12.372;2023-05-15T19:27:23;0.20;;;0.20;;
23336;SDS011;11840;45.414;12.372;2023-05-15T19:29:49;0.10;;;0.10;;
23336;SDS011;11840;45.414;12.372;2023-05-15T19:32:16;0.00;;;0.00;;
23336;SDS011;11840;45.414;12.372;2023-05-15T19:34:42;0.05;;;0.05;;
23336;SDS011;11840;45.414;12.372;2023-05-15T19:37:08;0.10;;;0.10;;
23336;SDS011;11840;45.414;12.372;2023-05-15T19:39:33;0.20;;;0.10;;
23336;SDS011;11840;45.414;12.372;2023-05-15T19:42:00;0.13;;;0.10;;
23336;SDS011;11840;45.414;12.372;2023-05-15T19:44:26;0.20;;;0.10;;
23336;SDS011;11840;45.414;12.372;2023-05-15T19:46:51;1.15;;;0.40;;
23336;SDS011;11840;45.414;12.372;2023-05-15T19:49:17;0.20;;;0.20;;
23336;SDS011;11840;45.414;12.372;2023-05-15T19:51:43;0.32;;;0.20;;
23336;SDS011;11840;45.414;12.372;2023-05-15T19:54:09;0.10;;;0.10;;
23336;SDS011;11840;45.414;12.372;2023-05-15T19:56:35;0.50;;;0.30;;
23336;SDS011;11840;45.414;12.372;2023-05-15T19:59:01;0.57;;;0.47;;
23336;SDS011;11840;45.414;12.372;2023-05-15T20:01:27;0.73;;;0.50;;
23336;SDS011;11840;45.414;12.372;2023-05-15T20:03:53;0.57;;;0.40;;
23336;SDS011;11840;45.414;12.372;2023-05-15T20:06:19;0.32;;;0.30;;
23336;SDS011;11840;45.414;12.372;2023-05-15T20:08:45;0.50;;;0.25;;
23336;SDS011;11840;45.414;12.372;2023-05-15T20:11:12;0.43;;;0.30;;
23336;SDS011;11840;45.414;12.372;2023-05-15T20:13:38;0.65;;;0.32;;
23336;SDS011;11840;45.414;12.372;2023-05-15T20:16:04;0.30;;;0.30;;
23336;SDS011;11840;45.414;12.372;2023-05-15T20:18:35;0.35;;;0.30;;
23336;SDS011;11840;45.414;12.372;2023-05-15T20:21:00;0.90;;;0.40;;
23336;SDS011;11840;45.414;12.372;2023-05-15T20:23:26;0.20;;;0.20;;
23336;SDS011;11840;45.414;12.372;2023-05-15T20:25:52;0.20;;;0.20;;
23336;SDS011;11840;45.414;12.372;2023-05-15T20:28:18;0.57;;;0.40;;
23336;SDS011;11840;45.414;12.372;2023-05-15T20:30:45;1.15;;;0.47;;
23336;SDS011;11840;45.414;12.372;2023-05-15T20:33:11;0.55;;;0.30;;
23336;SDS011;11840;45.414;12.372;2023-05-15T20:35:37;0.30;;;0.17;;
23336;SDS011;11840;45.414;12.372;2023-05-15T20:38:03;0.55;;;0.38;;
23336;SDS011;11840;45.414;12.372;2023-05-15T20:40:29;0.00;;;0.00;;
23336;SDS011;11840;45.414;12.372;2023-05-15T20:42:55;0.35;;;0.20;;
23336;SDS011;11840;45.414;12.372;2023-05-15T20:45:21;0.40;;;0.20;;
23336;SDS011;11840;45.414;12.372;2023-05-15T20:47:47;0.10;;;0.08;;
23336;SDS011;11840;45.414;12.372;2023-05-15T20:50:13;0.45;;;0.20;;
23336;SDS011;11840;45.414;12.372;2023-05-15T20:52:38;0.10;;;0.10;;
23336;SDS011;11840;45.414;12.372;2023-05-15T20:55:06;0.10;;;0.10;;
23336;SDS011;11840;45.414;12.372;2023-05-15T20:57:36;0.10;;;0.10;;
23336;SDS011;11840;45.414;12.372;2023-05-15T21:00:02;0.30;;;0.20;;
23336;SDS011;11840;45.414;12.372;2023-05-15T21:02:29;0.15;;;0.10;;
23336;SDS011;11840;45.414;12.372;2023-05-15T21:04:55;0.10;;;0.10;;
23336;SDS011;11840;45.414;12.372;2023-05-15T21:07:22;0.28;;;0.20;;
23336;SDS011;11840;45.414;12.372;2023-05-15T21:09:48;0.20;;;0.20;;
23336;SDS011;11840;45.414;12.372;2023-05-15T21:12:13;0.25;;;0.10;;
23336;SDS011;11840;45.414;12.372;2023-05-15T21:14:39;0.20;;;0.20;;
23336;SDS011;11840;45.414;12.372;2023-05-15T21:17:06;0.10;;;0.10;;
23336;SDS011;11840;45.414;12.372;2023-05-15T21:19:32;0.20;;;0.20;;
23336;SDS011;11840;45.414;12.372;2023-05-15T21:21:57;0.10;;;0.10;;
23336;SDS011;11840;45.414;12.372;2023-05-15T21:24:24;0.17;;;0.00;;
23336;SDS011;11840;45.414;12.372;2023-05-15T21:26:50;0.28;;;0.10;;
23336;SDS011;11840;45.414;12.372;2023-05-15T21:29:16;0.30;;;0.20;;
23336;SDS011;11840;45.414;12.372;2023-05-15T21:31:42;0.10;;;0.10;;
23336;SDS011;11840;45.414;12.372;2023-05-15T21:34:08;0.10;;;0.10;;
23336;SDS011;11840;45.414;12.372;2023-05-15T21:36:34;0.20;;;0.20;;